Time;durP1;ratioP1;P1;durP2;ratioP2;P2;SDS_P1;SDS_P2;PMS_P1;PMS_P2;Temp;Humidity;BMP_temperature;BMP_pressure;BME280_temperature;BME280_humidity;BME280_pressure;Samples;Min_cycle;Max_cycle;Signal;HPM_P1;HPM_P2
2021/03/19 00:01:34;;;;;;;1.70;1.03;;;;;;;1.62;82.21;99133.07;1774797;79;21131;-64
2021/03/19 00:04:02;;;;;;;12.97;8.00;;;;;;;1.62;82.24;99133.07;1776056;79;21133;-65
2021/03/19 00:06:30;;;;;;;3.67;2.73;;;;;;;1.65;82.17;99125.51;1779961;78;21337;-64
2021/03/19 00:09:00;;;;;;;1.40;1.20;;;;;;;1.67;82.20;99131.66;1779621;79;21146;-64
2021/03/19 00:11:27;;;;;;;3.37;1.83;;;;;;;1.67;82.18;99122.38;1775538;79;21194;-65
2021/03/19 00:13:55;;;;;;;2.20;1.93;;;;;;;1.68;82.16;99122.34;1776162;78;21633;-65
2021/03/19 00:16:22;;;;;;;1.83;1.70;;;;;;;1.69;82.13;99124.55;1776287;78;21723;-64
2021/03/19 00:18:51;;;;;;;2.00;1.83;;;;;;;1.67;82.07;99118.39;1773083;79;21233;-65
2021/03/19 00:21:18;;;;;;;1.47;1.10;;;;;;;1.67;82.12;99118.39;1742776;80;21195;-64
2021/03/19 00:23:46;;;;;;;1.30;1.10;;;;;;;1.68;82.12;99117.04;1777496;79;21625;-66
2021/03/19 00:26:13;;;;;;;1.33;1.00;;;;;;;1.70;82.15;99115.20;1774411;78;21182;-64
2021/03/19 00:28:41;;;;;;;2.00;1.10;;;;;;;1.72;82.11;99115.17;1776631;79;21198;-65
2021/03/19 00:31:08;;;;;;;1.60;1.50;;;;;;;1.72;82.10;99114.72;1774430;78;22577;-63
2021/03/19 00:33:36;;;;;;;1.50;1.40;;;;;;;1.69;82.07;99113.48;1775349;79;21543;-63
2021/03/19 00:36:05;;;;;;;1.73;1.47;;;;;;;1.67;82.02;99111.77;1777870;79;21107;-64
2021/03/19 00:38:32;;;;;;;3.57;1.70;;;;;;;1.63;82.03;99115.38;1749190;80;21267;-64
2021/03/19 00:41:00;;;;;;;2.07;1.20;;;;;;;1.60;82.02;99109.70;1778037;79;21118;-64
2021/03/19 00:43:27;;;;;;;2.20;1.33;;;;;;;1.55;82.03;99108.05;1774632;79;21388;-65
2021/03/19 00:45:55;;;;;;;3.40;1.40;;;;;;;1.53;82.12;99109.43;1775234;79;21736;-65
2021/03/19 00:48:22;;;;;;;1.50;1.20;;;;;;;1.53;82.13;99107.63;1777906;78;21802;-64
2021/03/19 00:50:52;;;;;;;1.83;1.50;;;;;;;1.53;82.21;99104.13;1777653;78;21146;-65
2021/03/19 00:53:19;;;;;;;2.90;1.20;;;;;;;1.53;82.21;99105.91;1775441;79;21246;-65
2021/03/19 00:55:51;;;;;;;2.03;1.47;;;;;;;1.53;82.27;99102.80;1773577;79;21211;-64
2021/03/19 00:58:18;;;;;;;3.00;1.20;;;;;;;1.51;82.22;99108.58;1778327;78;21306;-66
2021/03/19 01:00:46;;;;;;;2.67;1.90;;;;;;;1.49;82.26;99109.94;1775278;79;21601;-66
2021/03/19 01:03:13;;;;;;;1.73;1.40;;;;;;;1.48;82.27;99104.66;1776909;79;21162;-66
2021/03/19 01:05:44;;;;;;;1.90;1.50;;;;;;;1.47;82.28;99105.56;1772978;78;21712;-64
2021/03/19 01:08:13;;;;;;;1.50;1.40;;;;;;;1.45;82.34;99111.34;1775946;79;21660;-65
2021/03/19 01:10:47;;;;;;;1.83;1.30;;;;;;;1.47;82.34;99110.88;1747828;79;21194;-64
2021/03/19 01:13:14;;;;;;;2.87;1.42;;;;;;;1.48;82.34;99102.88;1773393;79;21670;-66
2021/03/19 01:15:42;;;;;;;2.03;1.47;;;;;;;1.50;82.33;99109.03;1778785;78;21170;-66
2021/03/19 01:18:13;;;;;;;1.70;1.10;;;;;;;1.53;82.35;99110.27;1778710;78;21641;-64
2021/03/19 01:20:43;;;;;;;3.70;3.10;;;;;;;1.53;82.32;99107.63;1778898;78;21817;-64
2021/03/19 01:23:11;;;;;;;2.77;2.53;;;;;;;1.50;82.29;99116.12;1741192;80;21597;-63
2021/03/19 01:25:39;;;;;;;2.97;1.77;;;;;;;1.46;82.31;99116.63;1774736;79;21848;-63
2021/03/19 01:28:07;;;;;;;2.17;1.73;;;;;;;1.44;82.28;99117.13;1779813;79;21763;-64
2021/03/19 01:30:37;;;;;;;2.33;1.93;;;;;;;1.44;82.31;99117.59;1776776;79;21254;-64
2021/03/19 01:33:05;;;;;;;1.70;1.33;;;;;;;1.43;82.33;99119.36;1774310;79;21486;-66
2021/03/19 01:35:36;;;;;;;3.00;1.33;;;;;;;1.41;82.39;99113.21;1741064;79;21778;-64
2021/03/19 01:38:04;;;;;;;2.27;1.50;;;;;;;1.43;82.38;99113.19;1748425;79;21214;-66
2021/03/19 01:40:37;;;;;;;2.03;1.20;;;;;;;1.44;82.41;99118.46;1746757;79;21189;-65
2021/03/19 01:43:27;;;;;;;3.37;1.73;;;;;;;1.44;82.36;99121.11;1778406;78;21188;-66
2021/03/19 01:46:51;;;;;;;2.77;1.90;;;;;;;1.40;82.32;99118.55;1742650;80;21502;-65
2021/03/19 01:50:15;;;;;;;2.13;1.30;;;;;;;1.36;82.32;99120.38;1779348;79;21489;-64
2021/03/19 01:53:39;;;;;;;1.63;1.10;;;;;;;1.32;82.37;99119.16;1777109;79;21231;-66
2021/03/19 01:57:02;;;;;;;1.87;1.33;;;;;;;1.28;82.50;99119.66;1780360;79;21194;-64
2021/03/19 02:00:28;;;;;;;1.90;1.22;;;;;;;1.30;82.60;99125.81;1775557;79;21211;-66
2021/03/19 02:03:53;;;;;;;1.17;1.00;;;;;;;1.33;82.57;99127.09;1774752;78;21380;-66
2021/03/19 02:07:16;;;;;;;2.63;1.13;;;;;;;1.34;82.53;99127.97;1725563;81;21206;-65
2021/03/19 02:10:40;;;;;;;1.30;1.03;;;;;;;1.31;82.46;99122.72;1731162;81;21632;-66
2021/03/19 02:14:04;;;;;;;1.30;0.90;;;;;;;1.28;82.55;99128.94;1732186;81;21746;-65
2021/03/19 02:17:27;;;;;;;1.17;0.80;;;;;;;1.27;82.61;99125.90;1728526;80;21503;-64
2021/03/19 02:20:51;;;;;;;2.30;0.77;;;;;;;1.21;82.55;99131.30;1727148;81;21899;-66
2021/03/19 02:24:15;;;;;;;0.97;0.70;;;;;;;1.17;82.68;99132.74;1726891;81;21265;-64
2021/03/19 02:27:38;;;;;;;0.70;0.60;;;;;;;1.17;82.81;99129.64;1729317;80;21194;-64
2021/03/19 02:31:02;;;;;;;0.87;0.70;;;;;;;1.22;82.83;99129.08;1728724;81;21199;-65
2021/03/19 02:33:31;;;;;;;1.50;0.80;;;;;;;1.23;82.76;99132.16;1711938;81;21117;-68
2021/03/19 02:36:00;;;;;;;1.53;1.10;;;;;;;1.21;82.77;99139.26;1698596;82;21455;-68
2021/03/19 02:38:27;;;;;;;0.93;0.77;;;;;;;1.22;82.75;99138.36;1732870;81;21533;-66
2021/03/19 02:40:55;;;;;;;1.20;0.83;;;;;;;1.21;82.75;99139.71;1702276;82;21146;-65
2021/03/19 02:43:23;;;;;;;1.43;0.70;;;;;;;1.19;82.70;99145.07;1696252;82;21153;-68
2021/03/19 02:45:51;;;;;;;1.10;0.90;;;;;;;1.14;82.80;99145.14;1701302;82;21110;-67
2021/03/19 02:48:19;;;;;;;1.93;0.80;;;;;;;1.12;82.80;99152.25;1702536;82;21598;-61
2021/03/19 02:50:46;;;;;;;0.83;0.70;;;;;;;1.11;82.84;99157.57;1722378;81;21162;-59
2021/03/19 02:53:20;;;;;;;0.90;0.70;;;;;;;1.10;82.84;99151.42;1724754;81;21575;-61
2021/03/19 02:55:49;;;;;;;2.00;0.80;;;;;;;1.14;82.91;99156.20;1724493;81;21110;-64
2021/03/19 02:58:16;;;;;;;1.20;0.80;;;;;;;1.10;82.89;99155.41;1721653;81;21139;-66
2021/03/19 03:00:44;;;;;;;2.80;0.90;;;;;;;1.08;82.94;99161.63;1724740;81;22226;-67
2021/03/19 03:03:11;;;;;;;1.77;0.90;;;;;;;1.08;82.91;99164.28;1721531;81;21203;-66
2021/03/19 03:06:56;;;;;;;1.30;0.80;;;;;;;1.12;82.88;99154.02;1789151;77;27354;-69
2021/03/19 03:09:31;;;;;;;2.80;0.80;;;;;;;1.09;82.89;99167.36;1767181;78;21106;-68
2021/03/19 03:11:58;;;;;;;0.90;0.70;;;;;;;1.09;82.88;99173.53;1763047;78;21407;-66
2021/03/19 03:14:28;;;;;;;0.93;0.70;;;;;;;1.09;82.94;99165.58;1763190;78;21426;-67
2021/03/19 03:17:01;;;;;;;0.80;0.70;;;;;;;1.10;82.98;99169.11;1707947;81;21189;-66
2021/03/19 03:19:29;;;;;;;0.70;0.60;;;;;;;1.11;82.96;99166.84;1729354;80;21228;-66
2021/03/19 03:21:56;;;;;;;1.10;0.80;;;;;;;1.13;82.99;99174.33;1728844;80;22009;-66
2021/03/19 03:24:25;;;;;;;0.90;0.73;;;;;;;1.16;82.91;99178.70;1730983;80;21724;-66
2021/03/19 03:26:52;;;;;;;1.60;0.80;;;;;;;1.14;82.87;99172.98;1729608;80;21009;-66
2021/03/19 03:29:21;;;;;;;0.80;0.70;;;;;;;1.12;82.78;99181.85;1726749;80;21500;-66
2021/03/19 03:31:48;;;;;;;1.40;0.80;;;;;;;1.10;82.78;99175.73;1731838;80;21493;-66
2021/03/19 03:34:16;;;;;;;1.30;0.60;;;;;;;1.10;82.77;99174.41;1731077;80;21207;-66
2021/03/19 03:36:43;;;;;;;1.40;0.90;;;;;;;1.11;82.79;99171.70;1701550;80;21517;-67
2021/03/19 03:39:16;;;;;;;1.43;1.23;;;;;;;1.11;82.85;99176.13;1731384;80;21218;-66
2021/03/19 03:41:44;;;;;;;1.10;0.70;;;;;;;1.12;82.82;99172.58;1730252;80;21159;-67
2021/03/19 03:44:13;;;;;;;0.83;0.70;;;;;;;1.12;82.75;99177.42;1729425;80;21713;-67
2021/03/19 03:46:42;;;;;;;1.10;0.90;;;;;;;1.11;82.74;99177.45;1731426;80;21215;-66
2021/03/19 03:49:10;;;;;;;2.50;0.80;;;;;;;1.08;82.72;99178.41;1732816;80;22055;-67
2021/03/19 03:51:37;;;;;;;1.10;0.90;;;;;;;1.06;82.67;99177.55;1725805;80;21616;-67
2021/03/19 03:54:04;;;;;;;0.73;0.60;;;;;;;1.05;82.74;99177.58;1728455;80;21178;-67
2021/03/19 03:56:31;;;;;;;0.90;0.80;;;;;;;1.05;82.69;99175.80;1726188;80;21188;-67
2021/03/19 03:58:59;;;;;;;0.97;0.70;;;;;;;1.02;82.62;99171.03;1727614;80;21215;-67
2021/03/19 04:01:27;;;;;;;1.20;0.70;;;;;;;1.03;82.76;99176.73;1727043;80;21310;-67
2021/03/19 04:03:55;;;;;;;1.30;0.93;;;;;;;1.04;82.79;99175.83;1732939;80;21206;-66
2021/03/19 04:06:22;;;;;;;1.00;0.90;;;;;;;1.02;82.68;99176.34;1721801;80;21504;-68
2021/03/19 04:08:50;;;;;;;1.40;1.00;;;;;;;1.00;82.72;99174.16;1759010;79;21171;-67
2021/03/19 04:11:20;;;;;;;2.63;1.03;;;;;;;0.97;82.76;99183.03;1758223;79;21198;-67
2021/03/19 04:13:49;;;;;;;3.20;0.90;;;;;;;1.00;82.76;99182.11;1758214;79;22089;-68
2021/03/19 04:16:17;;;;;;;2.17;1.00;;;;;;;1.00;82.79;99182.98;1758362;79;21245;-67
2021/03/19 04:18:45;;;;;;;2.13;0.90;;;;;;;1.03;82.79;99184.67;1759041;79;21952;-67
2021/03/19 04:21:13;;;;;;;3.17;1.00;;;;;;;1.02;82.77;99186.94;1754296;79;21179;-67
2021/03/19 04:23:44;;;;;;;1.70;1.37;;;;;;;0.99;82.63;99186.53;1759634;79;21211;-68
2021/03/19 04:26:28;;;;;;;1.20;0.83;;;;;;;0.95;82.68;99183.95;1757480;79;21206;-67
2021/03/19 04:28:55;;;;;;;1.37;1.17;;;;;;;0.93;82.79;99187.98;1756206;79;21179;-67
2021/03/19 04:31:23;;;;;;;2.13;0.90;;;;;;;0.91;82.76;99188.91;1754129;79;21186;-67
2021/03/19 04:33:50;;;;;;;1.47;1.00;;;;;;;0.93;82.77;99185.33;1755448;79;21152;-67
2021/03/19 04:36:44;;;;;;;1.67;1.00;;;;;;;0.94;82.83;99187.50;1754296;79;21118;-67
2021/03/19 04:39:15;;;;;;;1.67;0.90;;;;;;;0.95;82.83;99184.83;1755261;79;21197;-68
2021/03/19 04:41:45;;;;;;;3.50;1.10;;;;;;;0.98;82.77;99188.75;1751270;79;21450;-68
2021/03/19 04:44:13;;;;;;;1.07;0.97;;;;;;;1.01;82.79;99185.19;1754538;79;21149;-66
2021/03/19 04:46:40;;;;;;;1.70;1.20;;;;;;;0.99;82.77;99187.86;1752023;79;21836;-66
2021/03/19 04:49:08;;;;;;;2.23;1.40;;;;;;;0.99;82.76;99185.66;1753660;79;21123;-67
2021/03/19 04:51:37;;;;;;;1.43;1.33;;;;;;;0.95;82.74;99187.47;1753206;79;21264;-66
2021/03/19 04:54:06;;;;;;;2.23;1.00;;;;;;;0.95;82.74;99197.20;1756788;79;21589;-67
2021/03/19 04:56:33;;;;;;;1.30;0.93;;;;;;;0.94;82.78;99199.42;1755721;79;21518;-67
2021/03/19 04:59:00;;;;;;;1.30;1.10;;;;;;;0.94;82.79;99186.17;1757105;79;21139;-66
2021/03/19 05:01:28;;;;;;;1.90;0.93;;;;;;;0.92;82.78;99194.63;1757086;79;21143;-66
2021/03/19 05:03:56;;;;;;;3.40;1.90;;;;;;;0.92;82.87;99193.30;1755320;79;21200;-67
2021/03/19 05:06:23;;;;;;;1.67;1.57;;;;;;;0.90;82.84;99197.30;1750455;79;21238;-68
2021/03/19 05:08:52;;;;;;;1.47;1.23;;;;;;;0.90;82.93;99193.33;1750035;79;21056;-67
2021/03/19 05:11:19;;;;;;;1.60;1.10;;;;;;;0.91;82.91;99195.52;1747936;79;21370;-68
2021/03/19 05:13:47;;;;;;;1.67;1.20;;;;;;;0.90;82.88;99198.63;1750834;79;21176;-67
2021/03/19 05:16:15;;;;;;;1.60;1.10;;;;;;;0.90;82.82;99199.07;1751544;79;21180;-67
2021/03/19 05:18:43;;;;;;;1.90;1.57;;;;;;;0.92;82.93;99200.80;1748948;79;21207;-67
2021/03/19 05:21:11;;;;;;;1.47;1.20;;;;;;;0.92;82.96;99204.78;1751210;79;21766;-66
2021/03/19 05:23:38;;;;;;;1.47;1.10;;;;;;;0.95;82.94;99205.15;1748965;79;21243;-67
2021/03/19 05:26:06;;;;;;;1.83;1.30;;;;;;;0.95;82.84;99206.03;1747841;79;21183;-67
2021/03/19 05:28:33;;;;;;;1.40;1.30;;;;;;;0.96;82.84;99209.55;1749138;79;21398;-67
2021/03/19 05:31:01;;;;;;;1.83;1.20;;;;;;;0.97;82.82;99208.66;1745942;79;21199;-68
2021/03/19 05:33:31;;;;;;;1.80;1.20;;;;;;;0.96;82.80;99205.12;1749208;79;21484;-68
2021/03/19 05:35:59;;;;;;;2.10;1.47;;;;;;;0.95;82.68;99204.70;1738348;80;21124;-66
2021/03/19 05:38:27;;;;;;;2.30;1.00;;;;;;;0.94;82.84;99206.05;1750833;79;21091;-67
2021/03/19 05:40:56;;;;;;;1.23;1.00;;;;;;;0.95;82.82;99211.33;1753525;79;23407;-67
2021/03/19 05:43:34;;;;;;;3.10;1.03;;;;;;;0.96;82.89;99217.05;1749451;79;21116;-67
2021/03/19 05:46:09;;;;;;;1.60;1.30;;;;;;;0.97;82.86;99216.60;1711694;79;21116;-67
2021/03/19 05:49:09;;;;;;;2.00;1.63;;;;;;;0.95;82.75;99214.42;1695597;82;21764;-66
2021/03/19 05:51:47;;;;;;;4.63;1.33;;;;;;;0.91;82.83;99222.02;1750971;79;21179;-68
2021/03/19 05:54:38;;;;;;;1.77;1.40;;;;;;;0.89;82.81;99217.20;1742698;79;21215;-67
2021/03/19 05:57:14;;;;;;;1.67;1.50;;;;;;;0.90;82.84;99221.59;1750657;79;21537;-67
2021/03/19 05:59:47;;;;;;;3.73;1.60;;;;;;;0.93;82.97;99231.70;1750717;79;21139;-67
2021/03/19 06:02:23;;;;;;;3.87;1.70;;;;;;;0.96;82.93;99234.73;1752407;79;21422;-67
2021/03/19 06:05:20;;;;;;;1.60;1.50;;;;;;;0.98;82.98;99236.91;1751399;79;21102;-66
2021/03/19 06:07:56;;;;;;;2.23;1.93;;;;;;;0.99;82.98;99236.01;1745031;79;21262;-67
2021/03/19 06:10:37;;;;;;;4.27;1.60;;;;;;;0.97;82.95;99236.03;1750208;79;21775;-67
2021/03/19 06:13:20;;;;;;;1.73;1.40;;;;;;;0.96;82.95;99241.35;1749233;79;21419;-68
2021/03/19 06:15:57;;;;;;;2.13;1.50;;;;;;;1.00;82.99;99241.28;1750670;79;21104;-67
2021/03/19 06:18:36;;;;;;;2.43;1.70;;;;;;;1.04;82.89;99247.39;1745054;79;21660;-67
2021/03/19 06:21:14;;;;;;;1.70;1.53;;;;;;;1.06;82.95;99251.77;1744152;79;21288;-66
2021/03/19 06:23:47;;;;;;;1.80;1.70;;;;;;;1.09;82.93;99247.75;1745775;79;21218;-66
2021/03/19 06:26:36;;;;;;;3.43;1.97;;;;;;;1.13;82.90;99250.75;1723723;79;21163;-67
2021/03/19 06:29:21;;;;;;;2.67;2.37;;;;;;;1.18;82.81;99249.36;1751582;79;21104;-67
2021/03/19 06:32:23;;;;;;;1.87;1.77;;;;;;;1.19;82.66;99255.53;1745825;79;21593;-67
2021/03/19 06:35:16;;;;;;;1.97;1.83;;;;;;;1.21;82.63;99255.91;1748041;79;23306;-67
2021/03/19 06:37:50;;;;;;;2.07;1.93;;;;;;;1.22;82.53;99263.41;1745506;79;21120;-67
2021/03/19 06:40:35;;;;;;;2.43;2.23;;;;;;;1.21;82.52;99258.56;1751826;79;21207;-68
2021/03/19 06:43:29;;;;;;;2.67;2.35;;;;;;;1.20;82.37;99256.80;1746848;79;21756;-67
2021/03/19 06:46:26;;;;;;;3.80;3.40;;;;;;;1.23;82.46;99264.72;1748991;79;21589;-67
2021/03/19 06:49:00;;;;;;;4.20;3.73;;;;;;;1.24;82.39;99258.96;1749332;79;21582;-68
2021/03/19 06:51:39;;;;;;;5.37;4.87;;;;;;;1.26;82.37;99269.09;1749465;79;21219;-68
2021/03/19 06:54:16;;;;;;;5.33;4.70;;;;;;;1.25;82.34;99267.34;1747779;79;21214;-67
2021/03/19 06:57:03;;;;;;;4.90;4.50;;;;;;;1.27;82.32;99263.77;1747002;79;21240;-68
2021/03/19 06:59:43;;;;;;;5.87;4.73;;;;;;;1.28;82.21;99262.84;1750122;79;21120;-67
2021/03/19 07:05:25;;;;;;;5.87;4.70;;;;;;;1.33;82.33;99267.63;1789005;78;26826;-65
2021/03/19 07:08:04;;;;;;;5.83;4.70;;;;;;;1.33;82.31;99265.42;1765269;80;21226;-64
2021/03/19 07:10:45;;;;;;;8.87;6.53;;;;;;;1.36;82.14;99272.00;1736697;81;21739;-64
2021/03/19 07:14:01;;;;;;;7.10;6.13;;;;;;;1.33;82.06;99267.63;1712650;82;21549;-66
2021/03/19 07:17:14;;;;;;;7.20;5.33;;;;;;;1.35;82.00;99271.58;1731982;80;21255;-64
2021/03/19 07:20:00;;;;;;;7.73;5.50;;;;;;;1.35;81.94;99272.91;1737565;80;21175;-67
2021/03/19 07:22:59;;;;;;;6.22;4.72;;;;;;;1.36;81.91;99279.96;1737407;80;21850;-67
2021/03/19 07:25:55;;;;;;;6.50;5.00;;;;;;;1.38;81.89;99278.13;1720240;81;21384;-67
2021/03/19 07:28:56;;;;;;;7.83;6.20;;;;;;;1.39;81.88;99287.39;1723589;81;21171;-66
2021/03/19 07:31:44;;;;;;;6.53;5.73;;;;;;;1.39;81.77;99287.84;1733977;81;20996;-66
2021/03/19 07:34:44;;;;;;;8.27;5.93;;;;;;;1.36;81.73;99287.91;1735349;80;21209;-67
2021/03/19 07:37:42;;;;;;;6.83;5.70;;;;;;;1.33;81.62;99291.94;1723495;81;21198;-66
2021/03/19 07:40:32;;;;;;;7.30;5.17;;;;;;;1.32;81.73;99288.41;1699547;82;21520;-66
2021/03/19 07:43:23;;;;;;;4.77;4.17;;;;;;;1.32;81.65;99288.86;1696077;81;21210;-67
2021/03/19 07:46:15;;;;;;;7.20;5.27;;;;;;;1.30;81.74;99291.98;1676143;83;21200;-68
2021/03/19 07:49:02;;;;;;;5.40;4.90;;;;;;;1.29;81.74;99295.53;1712365;82;21213;-65
2021/03/19 07:51:57;;;;;;;7.37;6.00;;;;;;;1.29;81.76;99293.76;1675508;84;21136;-68
2021/03/19 07:54:45;;;;;;;7.72;5.28;;;;;;;1.33;81.65;99295.91;1707067;82;21676;-66
2021/03/19 07:57:39;;;;;;;8.70;5.30;;;;;;;1.29;81.59;99299.06;1706954;82;21096;-67
2021/03/19 08:00:25;;;;;;;7.23;5.90;;;;;;;1.31;81.61;99300.37;1704771;82;21221;-65
2021/03/19 08:03:16;;;;;;;12.00;7.57;;;;;;;1.36;81.65;99294.06;1679672;82;21887;-66
2021/03/19 08:08:47;;;;;;;14.13;8.90;;;;;;;1.49;81.46;99290.75;1874648;74;27132;-66
2021/03/19 08:11:32;;;;;;;11.07;7.90;;;;;;;1.51;81.46;99298.23;1849767;77;21553;-68
2021/03/19 08:14:49;;;;;;;10.07;7.43;;;;;;;1.57;81.25;99294.57;1846387;75;22484;-65
2021/03/19 08:17:39;;;;;;;6.17;5.57;;;;;;;1.59;81.23;99292.77;1705431;83;21201;-69
2021/03/19 08:20:24;;;;;;;6.37;5.20;;;;;;;1.68;81.12;99288.61;1698834;82;21430;-68
2021/03/19 08:23:03;;;;;;;6.72;5.00;;;;;;;1.79;81.13;99284.82;1706474;82;21194;-68
2021/03/19 08:25:35;;;;;;;6.87;5.33;;;;;;;1.93;80.97;99291.64;1670200;84;21171;-69
2021/03/19 08:28:20;;;;;;;7.23;5.33;;;;;;;2.02;80.81;99287.47;1674208;83;21079;-69
2021/03/19 08:31:18;;;;;;;7.03;5.53;;;;;;;2.08;80.64;99293.97;1650095;84;21249;-69
2021/03/19 08:34:35;;;;;;;6.73;5.73;;;;;;;2.10;80.42;99294.81;1669110;84;21218;-69
2021/03/19 08:37:04;;;;;;;5.07;4.40;;;;;;;2.15;80.32;99291.14;1680046;83;21118;-67
2021/03/19 08:39:44;;;;;;;5.07;3.30;;;;;;;2.24;80.03;99296.70;1680089;84;21571;-66
2021/03/19 08:42:35;;;;;;;4.03;3.67;;;;;;;2.30;80.01;99291.73;1678976;82;21586;-64
2021/03/19 08:45:05;;;;;;;3.37;3.07;;;;;;;2.37;79.86;99286.25;1703829;82;21184;-66
2021/03/19 08:47:36;;;;;;;6.30;3.77;;;;;;;2.47;79.64;99296.18;1712994;82;21162;-67
2021/03/19 08:50:22;;;;;;;4.57;3.80;;;;;;;2.57;79.55;99296.39;1700299;82;21225;-64
2021/03/19 08:53:19;;;;;;;3.43;3.13;;;;;;;2.66;79.34;99292.20;1703680;82;21162;-64
2021/03/19 08:56:12;;;;;;;4.10;3.60;;;;;;;2.78;79.03;99292.37;1702115;82;21303;-63
2021/03/19 08:58:51;;;;;;;3.87;3.43;;;;;;;2.84;77.92;99289.55;1708636;82;21589;-63
2021/03/19 09:01:53;;;;;;;2.40;2.20;;;;;;;2.80;77.92;99288.77;1699814;82;21502;-63
2021/03/19 09:05:01;;;;;;;2.17;1.80;;;;;;;2.84;78.12;99293.54;1708176;82;21012;-62
2021/03/19 09:07:40;;;;;;;2.53;2.00;;;;;;;2.89;77.75;99295.16;1698943;82;21420;-64
2021/03/19 09:10:22;;;;;;;8.13;3.87;;;;;;;2.91;77.19;99293.35;1696522;82;21661;-63
2021/03/19 09:13:07;;;;;;;3.73;3.43;;;;;;;2.90;77.25;99300.03;1698411;82;21199;-63
2021/03/19 09:15:34;;;;;;;4.10;3.63;;;;;;;2.86;76.79;99304.56;1701057;82;21579;-65
2021/03/19 09:18:43;;;;;;;3.00;2.80;;;;;;;2.82;76.92;99301.55;1685308;83;21620;-63
2021/03/19 09:21:35;;;;;;;3.87;3.37;;;;;;;2.78;76.82;99298.56;1687399;83;21249;-64
2021/03/19 09:24:20;;;;;;;2.10;2.00;;;;;;;2.82;77.14;99302.00;1861539;75;26579;-65
2021/03/19 09:26:54;;;;;;;2.57;1.93;;;;;;;2.82;76.99;99300.67;1844092;75;21075;-63
2021/03/19 09:29:27;;;;;;;3.60;3.27;;;;;;;2.88;76.57;99308.06;1849779;77;21198;-62
2021/03/19 09:31:59;;;;;;;3.23;3.03;;;;;;;2.88;76.50;99303.20;1844382;75;21174;-63
2021/03/19 09:34:50;;;;;;;3.23;2.93;;;;;;;2.89;76.37;99310.27;1839948;77;22293;-64
2021/03/19 09:37:41;;;;;;;3.50;3.30;;;;;;;2.89;76.36;99307.61;1831439;75;21134;-64
2021/03/19 09:40:37;;;;;;;2.93;2.73;;;;;;;2.88;76.06;99307.19;1845097;76;21152;-65
2021/03/19 09:43:04;;;;;;;4.92;2.20;;;;;;;2.84;75.73;99309.48;1820157;77;26393;-64
2021/03/19 09:45:34;;;;;;;3.30;1.93;;;;;;;2.77;75.77;99315.41;1821209;77;21229;-64
2021/03/19 09:48:16;;;;;;;4.50;2.70;;;;;;;2.77;75.75;99316.75;1821861;77;21096;-64
2021/03/19 09:50:51;;;;;;;2.43;2.23;;;;;;;2.77;75.67;99315.41;1819287;77;21088;-65
2021/03/19 09:53:29;;;;;;;3.58;3.27;;;;;;;2.79;75.65;99318.92;1818961;77;21092;-65
2021/03/19 09:56:03;;;;;;;3.50;3.17;;;;;;;2.82;75.57;99316.62;1819409;77;20982;-66
2021/03/19 09:58:46;;;;;;;5.70;4.22;;;;;;;2.83;75.60;99322.36;1815995;77;21127;-66
2021/03/19 10:01:43;;;;;;;2.97;2.67;;;;;;;2.86;75.58;99313.87;1816052;77;21377;-66
2021/03/19 10:04:28;;;;;;;3.87;1.90;;;;;;;2.96;75.49;99318.52;1820274;77;21381;-66
2021/03/19 10:06:55;;;;;;;8.10;4.23;;;;;;;3.08;75.18;99318.64;1823449;77;21183;-66
2021/03/19 10:09:26;;;;;;;3.50;2.37;;;;;;;3.16;73.74;99307.36;1820076;77;21622;-65
2021/03/19 10:12:00;;;;;;;2.17;1.97;;;;;;;3.14;73.26;99310.08;1815140;77;21142;-66
2021/03/19 10:14:35;;;;;;;1.70;1.53;;;;;;;3.14;73.44;99314.52;1821803;77;21429;-65
2021/03/19 10:17:13;;;;;;;2.03;1.20;;;;;;;3.15;72.89;99315.78;1815522;77;21081;-67
2021/03/19 10:19:43;;;;;;;1.50;1.40;;;;;;;3.15;72.03;99316.27;1820247;77;20942;-66
2021/03/19 10:22:10;;;;;;;1.83;1.73;;;;;;;3.18;72.05;99324.16;1821445;77;22902;-65
2021/03/19 10:24:37;;;;;;;2.67;1.57;;;;;;;3.23;71.78;99314.30;1819768;77;21124;-65
2021/03/19 10:27:13;;;;;;;1.60;1.17;;;;;;;3.29;71.08;99315.45;1819269;77;21552;-65
2021/03/19 10:29:42;;;;;;;2.07;1.93;;;;;;;3.30;70.74;99318.53;1818597;77;21089;-63
2021/03/19 10:32:13;;;;;;;2.77;1.23;;;;;;;3.31;70.98;99321.16;1816824;77;21206;-63
2021/03/19 10:34:46;;;;;;;2.50;1.57;;;;;;;3.32;69.76;99318.89;1816976;77;21270;-63
2021/03/19 10:37:36;;;;;;;1.40;1.10;;;;;;;3.33;69.92;99318.44;1816563;77;21625;-65
2021/03/19 10:40:24;;;;;;;1.30;1.10;;;;;;;3.34;69.66;99316.20;1817399;77;21659;-65
2021/03/19 10:43:01;;;;;;;1.77;1.27;;;;;;;3.40;69.61;99312.07;1723141;77;21230;-62
2021/03/19 10:45:40;;;;;;;2.70;1.50;;;;;;;3.47;68.98;99310.98;1819102;77;21156;-63
2021/03/19 10:48:27;;;;;;;1.20;0.90;;;;;;;3.49;69.08;99310.95;1822335;77;21359;-66
2021/03/19 10:51:15;;;;;;;3.53;0.90;;;;;;;3.52;68.93;99309.06;1816366;77;21179;-65
2021/03/19 10:54:00;;;;;;;1.30;0.90;;;;;;;3.57;68.34;99307.63;1786355;79;21202;-65
2021/03/19 10:56:27;;;;;;;1.30;0.98;;;;;;;3.57;68.07;99303.18;1686166;80;21537;-63
2021/03/19 10:59:20;;;;;;;1.10;0.80;;;;;;;3.56;66.96;99305.88;1765523;80;21269;-64
2021/03/19 11:01:49;;;;;;;1.10;0.70;;;;;;;3.56;67.49;99300.09;1777108;78;22723;-65
2021/03/19 11:04:33;;;;;;;0.90;0.80;;;;;;;3.56;65.97;99306.75;1779983;78;21190;-65
2021/03/19 11:07:29;;;;;;;1.07;0.80;;;;;;;3.52;66.53;99306.41;1745520;80;21187;-64
2021/03/19 11:10:38;;;;;;;1.17;1.00;;;;;;;3.56;66.91;99309.87;1760030;79;21249;-66
2021/03/19 11:13:16;;;;;;;1.00;0.80;;;;;;;3.63;66.09;99304.33;1763842;79;21182;-63
2021/03/19 11:15:49;;;;;;;2.50;1.17;;;;;;;3.64;65.58;99298.55;1764435;79;21402;-62
2021/03/19 11:18:33;;;;;;;2.40;1.07;;;;;;;3.67;65.12;99305.98;1763346;79;21146;-65
2021/03/19 11:21:10;;;;;;;2.75;1.10;;;;;;;3.68;65.17;99297.54;1767871;79;21232;-65
2021/03/19 11:24:02;;;;;;;2.07;0.93;;;;;;;3.71;64.54;99294.80;1758540;79;21138;-64
2021/03/19 11:26:35;;;;;;;1.47;1.10;;;;;;;3.72;64.61;99303.20;1752589;80;21202;-63
2021/03/19 11:29:23;;;;;;;1.17;0.83;;;;;;;3.70;64.62;99303.24;1753575;80;21196;-61
2021/03/19 11:32:14;;;;;;;1.20;1.00;;;;;;;3.68;64.02;99303.73;1749435;80;21218;-65
2021/03/19 11:34:50;;;;;;;1.30;0.90;;;;;;;3.67;64.12;99303.31;1752688;80;21514;-62
2021/03/19 11:37:25;;;;;;;1.20;0.97;;;;;;;3.73;63.92;99303.17;1759751;80;21055;-64
2021/03/19 11:40:00;;;;;;;1.10;1.00;;;;;;;3.75;63.15;99299.98;1756969;80;21202;-66
2021/03/19 11:42:42;;;;;;;1.77;0.80;;;;;;;3.74;62.23;99298.72;1736022;80;21611;-65
2021/03/19 11:45:16;;;;;;;1.53;0.83;;;;;;;3.76;62.12;99295.53;1757872;80;21174;-63
2021/03/19 11:47:53;;;;;;;1.37;0.80;;;;;;;3.81;62.56;99293.64;1765988;79;21224;-64
2021/03/19 11:50:30;;;;;;;0.90;0.70;;;;;;;3.88;61.93;99295.20;1751025;79;21187;-63
2021/03/19 11:53:04;;;;;;;0.80;0.80;;;;;;;3.89;61.21;99296.08;1769142;79;21177;-63
2021/03/19 11:55:36;;;;;;;1.07;0.82;;;;;;;3.89;61.57;99300.07;1770220;79;23022;-65
2021/03/19 11:58:04;;;;;;;2.37;0.90;;;;;;;3.93;61.13;99297.72;1734218;81;21186;-62
2021/03/19 12:00:34;;;;;;;1.37;0.80;;;;;;;3.96;60.76;99293.65;1745881;80;22126;-64
2021/03/19 12:03:06;;;;;;;2.17;0.90;;;;;;;3.97;61.07;99296.73;1749784;80;21217;-62
2021/03/19 12:05:34;;;;;;;1.10;0.93;;;;;;;4.00;60.94;99297.95;1752492;80;21187;-65
2021/03/19 12:08:04;;;;;;;2.00;0.70;;;;;;;4.01;61.28;99290.38;1751697;80;21822;-63
2021/03/19 12:10:32;;;;;;;0.97;0.80;;;;;;;4.07;60.56;99297.76;1750750;80;21179;-65
2021/03/19 12:13:05;;;;;;;0.80;0.70;;;;;;;4.06;60.14;99292.02;1748642;80;21345;-62
2021/03/19 12:15:34;;;;;;;1.20;1.00;;;;;;;4.08;60.10;99302.63;1752551;80;21224;-65
2021/03/19 12:18:02;;;;;;;0.77;0.70;;;;;;;4.05;59.53;99298.71;1752061;80;21303;-64
2021/03/19 12:20:32;;;;;;;1.00;0.70;;;;;;;4.05;59.54;99294.26;1749856;80;21389;-66
2021/03/19 12:22:59;;;;;;;1.33;0.80;;;;;;;4.11;59.62;99291.86;1752600;79;22339;-66
2021/03/19 12:25:31;;;;;;;1.40;0.80;;;;;;;4.19;59.82;99293.84;1780346;79;21206;-63
2021/03/19 12:27:59;;;;;;;1.00;0.80;;;;;;;4.25;59.66;99291.47;1779758;79;21166;-64
2021/03/19 12:30:26;;;;;;;0.90;0.80;;;;;;;4.26;58.44;99286.53;1783237;78;21569;-62
2021/03/19 12:32:56;;;;;;;1.10;0.80;;;;;;;4.26;58.34;99280.74;1790178;78;21378;-64
2021/03/19 12:35:26;;;;;;;1.53;0.80;;;;;;;4.25;57.36;99284.36;1760652;80;21230;-64
2021/03/19 12:37:56;;;;;;;1.33;0.87;;;;;;;4.25;57.38;99286.14;1784889;78;21179;-65
2021/03/19 12:40:25;;;;;;;1.20;1.00;;;;;;;4.24;57.24;99285.73;1787989;78;21172;-64
2021/03/19 12:42:53;;;;;;;2.87;0.80;;;;;;;4.23;57.38;99286.64;1785717;78;21160;-63